Time;durP1;ratioP1;P1;durP2;ratioP2;P2;SDS_P1;SDS_P2;PMS_P1;PMS_P2;Temp;Humidity;BMP_temperature;BMP_pressure;BME280_temperature;BME280_humidity;BME280_pressure;Samples;Min_cycle;Max_cycle;Signal;HPM_P1;HPM_P2
2021/07/25 00:01:00;;;;;;;55.83;42.97;;;;;;;;;;4974604;28;20440;-74
2021/07/25 00:03:25;;;;;;;52.85;43.30;;;;;;;;;;4973221;28;20799;-74
2021/07/25 00:05:50;;;;;;;57.53;46.17;;;;;;;;;;4959347;28;20251;-74
2021/07/25 00:08:15;;;;;;;58.35;45.42;;;;;;;;;;4970917;28;20517;-74
2021/07/25 00:10:41;;;;;;;55.03;44.78;;;;;;;;;;4973408;28;20545;-75
2021/07/25 00:13:07;;;;;;;56.40;46.28;;;;;;;;;;4966535;28;20176;-75
2021/07/25 00:15:32;;;;;;;51.42;40.90;;;;;;;;;;4982569;28;20220;-74
2021/07/25 00:17:58;;;;;;;50.23;41.70;;;;;;;;;;4969862;28;20195;-74
2021/07/25 00:20:23;;;;;;;46.53;39.77;;;;;;;;;;4970289;28;20905;-75
2021/07/25 00:22:48;;;;;;;52.90;40.58;;;;;;;;;;4973645;28;20442;-75
2021/07/25 00:25:18;;;;;;;44.03;36.60;;;;;;;;;;4959817;28;20733;-75
2021/07/25 00:27:44;;;;;;;47.25;37.00;;;;;;;;;;4970071;28;20477;-75
2021/07/25 00:30:10;;;;;;;42.30;35.45;;;;;;;;;;4961425;28;20185;-75
2021/07/25 00:32:35;;;;;;;44.75;37.30;;;;;;;;;;4973607;28;20181;-75
2021/07/25 00:35:00;;;;;;;45.75;39.22;;;;;;;;;;4980399;28;20724;-75
2021/07/25 00:37:25;;;;;;;47.53;39.25;;;;;;;;;;4964906;28;20886;-75
2021/07/25 00:39:51;;;;;;;45.22;36.45;;;;;;;;;;4975575;28;20195;-75
2021/07/25 00:42:16;;;;;;;51.38;41.65;;;;;;;;;;4959287;28;20271;-75
2021/07/25 00:44:41;;;;;;;51.42;43.28;;;;;;;;;;4972962;28;20243;-75
2021/07/25 00:47:06;;;;;;;55.67;45.43;;;;;;;;;;4965560;28;20641;-75
2021/07/25 00:49:32;;;;;;;50.90;42.90;;;;;;;;;;4971701;28;20405;-74
2021/07/25 00:51:57;;;;;;;59.55;46.35;;;;;;;;;;4979569;28;20180;-75
2021/07/25 00:54:22;;;;;;;48.63;40.63;;;;;;;;;;4982596;28;20761;-75
2021/07/25 00:56:48;;;;;;;47.25;42.08;;;;;;;;;;4962189;28;20893;-74
2021/07/25 00:59:13;;;;;;;40.13;33.17;;;;;;;;;;4972581;28;20205;-75
2021/07/25 01:01:38;;;;;;;41.67;36.88;;;;;;;;;;4959115;28;20192;-75
2021/07/25 01:04:16;;;;;;;47.40;37.10;;;;;;;;;;4974532;28;20196;-75
2021/07/25 01:06:59;;;;;;;50.17;39.25;;;;;;;;;;4973882;28;20176;-74
2021/07/25 01:09:32;;;;;;;55.75;44.90;;;;;;;;;;4959788;28;20188;-75
2021/07/25 01:11:58;;;;;;;53.80;44.75;;;;;;;;;;4970364;28;20192;-75
2021/07/25 01:14:28;;;;;;;53.17;44.70;;;;;;;;;;4955647;28;20663;-75
2021/07/25 01:17:13;;;;;;;58.80;43.95;;;;;;;;;;4968903;28;20271;-77
2021/07/25 01:19:38;;;;;;;49.15;39.55;;;;;;;;;;4961350;28;20754;-75
2021/07/25 01:22:03;;;;;;;60.53;47.20;;;;;;;;;;4958624;28;20271;-75
2021/07/25 01:27:00;;;;;;;63.75;48.10;;;;;;;;;;4940810;28;20219;-73
2021/07/25 01:29:26;;;;;;;60.43;48.07;;;;;;;;;;4945592;28;20189;-73
2021/07/25 01:31:52;;;;;;;57.60;46.38;;;;;;;;;;4953999;28;20931;-73
2021/07/25 01:34:17;;;;;;;49.42;41.42;;;;;;;;;;4954009;28;20216;-73
2021/07/25 01:36:43;;;;;;;52.55;42.03;;;;;;;;;;4937531;29;20204;-73
2021/07/25 01:39:08;;;;;;;50.97;41.40;;;;;;;;;;4943207;28;20288;-74
2021/07/25 01:41:41;;;;;;;58.17;47.93;;;;;;;;;;4944987;28;20196;-73
2021/07/25 01:44:06;;;;;;;60.13;47.60;;;;;;;;;;4943274;29;20434;-73
2021/07/25 01:46:31;;;;;;;63.03;50.25;;;;;;;;;;4942268;28;20198;-73
2021/07/25 01:48:56;;;;;;;62.42;50.78;;;;;;;;;;4939667;29;20200;-73
2021/07/25 01:51:22;;;;;;;64.77;50.53;;;;;;;;;;4941157;28;20619;-73
2021/07/25 01:53:47;;;;;;;58.53;48.23;;;;;;;;;;4939553;29;20438;-74
2021/07/25 01:56:12;;;;;;;62.87;50.43;;;;;;;;;;4948239;28;20447;-73
2021/07/25 01:58:37;;;;;;;61.10;47.60;;;;;;;;;;4946095;28;20468;-73
2021/07/25 02:01:02;;;;;;;54.13;45.75;;;;;;;;;;4938674;29;20507;-73
2021/07/25 02:03:31;;;;;;;61.88;47.65;;;;;;;;;;4936850;29;20224;-73
2021/07/25 02:05:56;;;;;;;62.75;48.35;;;;;;;;;;4943409;29;20741;-74
2021/07/25 02:08:21;;;;;;;60.83;49.65;;;;;;;;;;4944965;28;20185;-74
2021/07/25 02:10:47;;;;;;;66.53;50.35;;;;;;;;;;4943972;28;20564;-74
2021/07/25 02:13:13;;;;;;;71.30;53.95;;;;;;;;;;4941431;28;20225;-73
2021/07/25 02:15:38;;;;;;;66.38;49.42;;;;;;;;;;4942403;29;20197;-74
2021/07/25 02:18:03;;;;;;;68.88;50.88;;;;;;;;;;4951580;29;20184;-74
2021/07/25 02:20:28;;;;;;;65.47;50.13;;;;;;;;;;4947527;28;20209;-74
2021/07/25 02:22:54;;;;;;;63.53;51.50;;;;;;;;;;4945034;29;20195;-74
2021/07/25 02:25:19;;;;;;;65.73;51.70;;;;;;;;;;4946889;28;20458;-72
2021/07/25 02:27:44;;;;;;;70.63;51.35;;;;;;;;;;4964730;28;20521;-74
2021/07/25 02:30:09;;;;;;;66.57;53.10;;;;;;;;;;4959837;28;20189;-72
2021/07/25 02:32:35;;;;;;;60.05;46.92;;;;;;;;;;4951014;28;20838;-73
2021/07/25 02:35:00;;;;;;;58.80;47.22;;;;;;;;;;4961257;28;20205;-73
2021/07/25 02:37:25;;;;;;;58.00;45.60;;;;;;;;;;4961267;28;20208;-73
2021/07/25 02:39:50;;;;;;;60.43;49.57;;;;;;;;;;4964271;28;20493;-73
2021/07/25 02:42:16;;;;;;;65.00;49.40;;;;;;;;;;4960727;28;20936;-73
2021/07/25 02:44:41;;;;;;;56.33;45.88;;;;;;;;;;4959240;28;20264;-73
2021/07/25 02:47:06;;;;;;;63.00;46.22;;;;;;;;;;4962702;28;20733;-73
2021/07/25 02:49:31;;;;;;;49.72;40.30;;;;;;;;;;4955893;28;20254;-73
2021/07/25 02:52:01;;;;;;;49.30;40.22;;;;;;;;;;4962064;28;20610;-74
2021/07/25 02:54:26;;;;;;;58.28;44.78;;;;;;;;;;4958510;28;20184;-74
2021/07/25 02:56:51;;;;;;;58.67;46.43;;;;;;;;;;4961839;28;20193;-74
2021/07/25 02:59:17;;;;;;;44.40;36.10;;;;;;;;;;4949879;28;21055;-72
2021/07/25 03:01:42;;;;;;;65.47;47.53;;;;;;;;;;4957569;28;20431;-73
2021/07/25 03:04:07;;;;;;;58.75;43.67;;;;;;;;;;4952640;28;20948;-73
2021/07/25 03:06:32;;;;;;;55.70;41.85;;;;;;;;;;4951256;28;20294;-73
2021/07/25 03:08:58;;;;;;;54.28;43.33;;;;;;;;;;4956801;28;20219;-73
2021/07/25 03:11:23;;;;;;;69.85;49.25;;;;;;;;;;4961404;28;20235;-73
2021/07/25 03:13:48;;;;;;;57.70;46.72;;;;;;;;;;4963863;28;20230;-73
2021/07/25 03:16:13;;;;;;;74.03;51.97;;;;;;;;;;4949468;28;20252;-73
2021/07/25 03:18:39;;;;;;;68.90;49.47;;;;;;;;;;4964864;28;20990;-73
2021/07/25 03:21:04;;;;;;;67.67;52.40;;;;;;;;;;4958677;28;20484;-73
2021/07/25 03:23:30;;;;;;;72.55;53.25;;;;;;;;;;4968410;28;20861;-74
2021/07/25 03:25:55;;;;;;;72.53;50.47;;;;;;;;;;4959005;28;20267;-74
2021/07/25 03:28:20;;;;;;;71.30;53.38;;;;;;;;;;4947098;28;20176;-74
2021/07/25 03:30:47;;;;;;;69.30;51.15;;;;;;;;;;4957897;28;20216;-74
2021/07/25 03:33:13;;;;;;;69.88;49.00;;;;;;;;;;4963280;28;20268;-75
2021/07/25 03:35:38;;;;;;;62.40;46.67;;;;;;;;;;4969118;28;20288;-74
2021/07/25 03:38:03;;;;;;;65.40;47.55;;;;;;;;;;4939978;28;20176;-72
2021/07/25 03:40:29;;;;;;;74.05;49.88;;;;;;;;;;4961630;28;20778;-72
2021/07/25 03:42:55;;;;;;;67.43;47.92;;;;;;;;;;4962271;28;20184;-74
2021/07/25 03:45:20;;;;;;;66.47;48.40;;;;;;;;;;4960052;28;20685;-75
2021/07/25 03:47:45;;;;;;;70.28;51.38;;;;;;;;;;4964939;28;20666;-74
2021/07/25 03:50:11;;;;;;;67.80;47.55;;;;;;;;;;4969446;28;20267;-74
2021/07/25 03:52:36;;;;;;;69.75;47.28;;;;;;;;;;4965726;28;20599;-74
2021/07/25 03:55:05;;;;;;;64.00;45.45;;;;;;;;;;4947083;28;20200;-72
2021/07/25 03:57:31;;;;;;;60.13;44.72;;;;;;;;;;4960853;28;20320;-74
2021/07/25 03:59:56;;;;;;;65.63;45.33;;;;;;;;;;4959198;28;20271;-73
2021/07/25 04:02:21;;;;;;;58.17;42.13;;;;;;;;;;4957758;28;20658;-73
2021/07/25 04:04:46;;;;;;;63.43;43.47;;;;;;;;;;4966567;28;20449;-72
2021/07/25 04:07:11;;;;;;;58.53;43.97;;;;;;;;;;4964629;28;20918;-72
2021/07/25 04:09:37;;;;;;;58.83;44.22;;;;;;;;;;4966058;28;20193;-72
2021/07/25 04:12:02;;;;;;;55.27;41.77;;;;;;;;;;4961987;28;20185;-75
2021/07/25 04:14:27;;;;;;;56.10;40.97;;;;;;;;;;4960663;28;20465;-72
2021/07/25 04:16:52;;;;;;;58.63;41.00;;;;;;;;;;4955774;28;20293;-72
2021/07/25 04:19:17;;;;;;;58.10;39.70;;;;;;;;;;4960752;28;20204;-72
2021/07/25 04:21:43;;;;;;;52.58;40.55;;;;;;;;;;4961002;28;20785;-73
2021/07/25 04:24:08;;;;;;;52.57;39.47;;;;;;;;;;4967599;28;20177;-75
2021/07/25 04:26:33;;;;;;;49.75;35.88;;;;;;;;;;4950253;28;20532;-74
2021/07/25 04:28:59;;;;;;;48.92;37.28;;;;;;;;;;4966322;28;20188;-74
2021/07/25 04:31:24;;;;;;;49.97;37.75;;;;;;;;;;4954879;28;20266;-74
2021/07/25 04:33:52;;;;;;;46.00;35.42;;;;;;;;;;4968136;28;20184;-72
2021/07/25 04:36:24;;;;;;;43.38;32.80;;;;;;;;;;4953911;28;20260;-74
2021/07/25 04:38:50;;;;;;;41.20;31.88;;;;;;;;;;4953695;28;20208;-74
2021/07/25 04:41:19;;;;;;;40.72;32.15;;;;;;;;;;4951771;28;20188;-73
2021/07/25 04:43:45;;;;;;;39.35;31.35;;;;;;;;;;4968645;28;20211;-72
2021/07/25 04:46:12;;;;;;;34.50;28.90;;;;;;;;;;4962822;28;20205;-72
2021/07/25 04:48:51;;;;;;;37.60;30.35;;;;;;;;;;4959159;28;20195;-72
2021/07/25 04:51:18;;;;;;;35.13;29.23;;;;;;;;;;4964048;28;20243;-72
2021/07/25 04:53:43;;;;;;;33.40;27.88;;;;;;;;;;4955413;28;20197;-73
2021/07/25 04:56:12;;;;;;;30.17;26.10;;;;;;;;;;4962303;28;20740;-72
2021/07/25 04:58:44;;;;;;;29.08;24.30;;;;;;;;;;4962981;28;20659;-73
2021/07/25 05:01:14;;;;;;;27.55;23.63;;;;;;;;;;4961339;28;20183;-72
2021/07/25 05:03:40;;;;;;;29.95;24.65;;;;;;;;;;4961063;28;20184;-72
2021/07/25 05:06:07;;;;;;;26.45;22.45;;;;;;;;;;4961327;28;20204;-73
2021/07/25 05:08:33;;;;;;;24.77;21.50;;;;;;;;;;4960260;28;20263;-73
2021/07/25 05:11:03;;;;;;;25.63;20.38;;;;;;;;;;4961286;28;20255;-72
2021/07/25 05:13:31;;;;;;;20.67;18.52;;;;;;;;;;4955534;28;20189;-72
2021/07/25 05:15:56;;;;;;;21.10;18.95;;;;;;;;;;4969936;28;20208;-72
2021/07/25 05:18:28;;;;;;;26.38;21.83;;;;;;;;;;4963248;28;20184;-72
2021/07/25 05:21:12;;;;;;;24.17;19.27;;;;;;;;;;4958542;28;20177;-72
2021/07/25 05:23:41;;;;;;;20.15;18.13;;;;;;;;;;4955116;28;20583;-72
2021/07/25 05:26:09;;;;;;;21.92;17.95;;;;;;;;;;4937979;28;20255;-72
2021/07/25 05:28:36;;;;;;;19.45;17.40;;;;;;;;;;4959423;28;20654;-73
2021/07/25 05:31:01;;;;;;;18.08;15.10;;;;;;;;;;4964062;28;20666;-72
2021/07/25 05:33:26;;;;;;;17.88;14.45;;;;;;;;;;4961502;28;20173;-72
2021/07/25 05:35:52;;;;;;;17.13;13.23;;;;;;;;;;4953958;28;20421;-73
2021/07/25 05:38:17;;;;;;;16.17;13.10;;;;;;;;;;4962098;28;20790;-72
2021/07/25 05:40:43;;;;;;;14.77;11.00;;;;;;;;;;4963775;28;20461;-72
2021/07/25 05:43:08;;;;;;;12.70;10.95;;;;;;;;;;4960548;28;20176;-72
2021/07/25 05:45:33;;;;;;;15.10;11.52;;;;;;;;;;4956235;28;20209;-72
2021/07/25 05:47:58;;;;;;;11.52;9.93;;;;;;;;;;4958895;28;20176;-72
2021/07/25 05:50:24;;;;;;;11.88;10.52;;;;;;;;;;4962194;28;20180;-72
2021/07/25 05:52:50;;;;;;;11.00;9.90;;;;;;;;;;4948777;28;20199;-72
2021/07/25 05:55:20;;;;;;;12.10;9.57;;;;;;;;;;4953733;28;20505;-73
2021/07/25 05:57:45;;;;;;;16.80;9.63;;;;;;;;;;4963122;28;20653;-73
2021/07/25 06:00:11;;;;;;;11.90;9.73;;;;;;;;;;4956317;28;20211;-73
2021/07/25 06:03:08;;;;;;;18.02;9.90;;;;;;;;;;4949723;28;20525;-73
2021/07/25 06:05:34;;;;;;;9.70;8.80;;;;;;;;;;4926942;28;20220;-73
2021/07/25 06:08:00;;;;;;;11.75;9.57;;;;;;;;;;4959570;28;20183;-73
2021/07/25 06:10:30;;;;;;;10.40;9.30;;;;;;;;;;4966731;28;20177;-73
2021/07/25 06:12:58;;;;;;;10.10;8.50;;;;;;;;;;4967242;28;20417;-73
2021/07/25 06:15:24;;;;;;;11.40;8.52;;;;;;;;;;4966939;28;20223;-73
2021/07/25 06:17:50;;;;;;;13.95;9.55;;;;;;;;;;4956311;28;20181;-73
2021/07/25 06:20:15;;;;;;;10.30;8.55;;;;;;;;;;4958172;28;20257;-73
2021/07/25 06:22:48;;;;;;;12.52;8.80;;;;;;;;;;4945294;28;20187;-73
2021/07/25 06:25:14;;;;;;;9.63;8.48;;;;;;;;;;4943918;28;20713;-73
2021/07/25 06:27:40;;;;;;;10.90;8.63;;;;;;;;;;4955760;28;20674;-73
2021/07/25 06:30:06;;;;;;;10.13;8.90;;;;;;;;;;4961893;28;20181;-73
2021/07/25 06:32:31;;;;;;;9.18;8.27;;;;;;;;;;4955979;28;20183;-73
2021/07/25 06:34:56;;;;;;;10.23;9.32;;;;;;;;;;4956184;28;20201;-72
2021/07/25 06:37:22;;;;;;;9.33;7.93;;;;;;;;;;4954934;28;20188;-72
2021/07/25 06:39:47;;;;;;;10.20;8.73;;;;;;;;;;4953515;28;20853;-73
2021/07/25 06:42:12;;;;;;;12.63;8.10;;;;;;;;;;4952343;28;20533;-72
2021/07/25 06:44:37;;;;;;;9.27;8.37;;;;;;;;;;4964674;28;20437;-71
2021/07/25 06:47:03;;;;;;;9.45;8.18;;;;;;;;;;4962997;28;20965;-73
2021/07/25 06:49:28;;;;;;;9.63;8.40;;;;;;;;;;4955143;28;21771;-72
2021/07/25 06:51:53;;;;;;;10.43;8.27;;;;;;;;;;4952035;28;20220;-72
2021/07/25 06:54:18;;;;;;;10.50;8.83;;;;;;;;;;4955899;28;20438;-72
2021/07/25 06:56:43;;;;;;;10.23;8.40;;;;;;;;;;4957480;28;20462;-72
2021/07/25 06:59:08;;;;;;;9.85;8.85;;;;;;;;;;4951624;28;20461;-72
2021/07/25 07:01:34;;;;;;;10.63;8.80;;;;;;;;;;4959182;28;20192;-72
2021/07/25 07:03:59;;;;;;;12.30;8.53;;;;;;;;;;4955185;28;20504;-72
2021/07/25 07:06:24;;;;;;;10.83;9.17;;;;;;;;;;4955764;28;20834;-72
2021/07/25 07:08:49;;;;;;;8.82;7.93;;;;;;;;;;4957951;28;20235;-72
2021/07/25 07:11:14;;;;;;;9.57;8.55;;;;;;;;;;4957578;28;20189;-72
2021/07/25 07:13:40;;;;;;;9.73;8.52;;;;;;;;;;4964454;28;20233;-72
2021/07/25 07:16:05;;;;;;;11.00;9.07;;;;;;;;;;4966831;28;20686;-72
2021/07/25 07:18:30;;;;;;;9.77;8.77;;;;;;;;;;4969347;28;20181;-72
2021/07/25 07:20:55;;;;;;;10.50;9.13;;;;;;;;;;4961161;28;20181;-72
2021/07/25 07:23:23;;;;;;;14.83;10.40;;;;;;;;;;4959204;28;21063;-72
2021/07/25 07:25:49;;;;;;;10.85;9.13;;;;;;;;;;4974399;23;20502;-75
2021/07/25 07:28:15;;;;;;;9.82;8.93;;;;;;;;;;4962017;28;20183;-75
2021/07/25 07:30:41;;;;;;;10.27;9.10;;;;;;;;;;4961388;28;20188;-75
2021/07/25 07:33:16;;;;;;;9.60;8.23;;;;;;;;;;4961830;28;20670;-75
2021/07/25 07:35:41;;;;;;;9.77;8.77;;;;;;;;;;4954952;28;20236;-75
2021/07/25 07:38:07;;;;;;;10.55;9.30;;;;;;;;;;4939657;28;20934;-75
2021/07/25 07:40:33;;;;;;;11.80;9.77;;;;;;;;;;4945967;28;20212;-75
2021/07/25 07:42:58;;;;;;;10.50;9.15;;;;;;;;;;4946784;28;20185;-75
2021/07/25 07:45:23;;;;;;;10.50;9.00;;;;;;;;;;4944467;28;20260;-75
2021/07/25 07:47:49;;;;;;;9.93;8.90;;;;;;;;;;4930868;28;20200;-75
2021/07/25 07:50:15;;;;;;;13.48;10.15;;;;;;;;;;4945765;28;20190;-76
2021/07/25 07:52:40;;;;;;;10.23;9.23;;;;;;;;;;4946916;28;20270;-74
2021/07/25 07:55:06;;;;;;;21.30;9.30;;;;;;;;;;4947118;28;20212;-75
2021/07/25 07:57:31;;;;;;;10.27;9.20;;;;;;;;;;4949853;28;20185;-75
2021/07/25 07:59:56;;;;;;;11.95;10.10;;;;;;;;;;4945634;28;20240;-75
2021/07/25 08:02:21;;;;;;;11.33;10.23;;;;;;;;;;4953365;29;20192;-75
2021/07/25 08:04:46;;;;;;;12.73;10.20;;;;;;;;;;4954906;29;20423;-74
2021/07/25 08:07:12;;;;;;;13.57;9.67;;;;;;;;;;4931476;28;20489;-75
2021/07/25 08:09:37;;;;;;;11.48;9.93;;;;;;;;;;4943876;28;20189;-75
2021/07/25 08:12:02;;;;;;;13.03;11.40;;;;;;;;;;4944385;28;20256;-75
2021/07/25 08:14:27;;;;;;;11.45;10.15;;;;;;;;;;4946027;28;20184;-75
2021/07/25 08:16:53;;;;;;;11.67;9.60;;;;;;;;;;4944695;28;20288;-75
2021/07/25 08:19:18;;;;;;;13.87;10.77;;;;;;;;;;4937519;28;20513;-75
2021/07/25 08:21:43;;;;;;;12.07;10.80;;;;;;;;;;4944758;28;20474;-75
2021/07/25 08:24:08;;;;;;;13.77;11.20;;;;;;;;;;4945370;28;20430;-76
2021/07/25 08:26:34;;;;;;;13.70;10.60;;;;;;;;;;4946703;28;20855;-75
2021/07/25 08:28:59;;;;;;;12.30;10.35;;;;;;;;;;4945580;28;20221;-75
2021/07/25 08:31:24;;;;;;;12.37;10.53;;;;;;;;;;4946650;28;20185;-75
2021/07/25 08:33:49;;;;;;;13.75;11.00;;;;;;;;;;4946003;28;20438;-75
2021/07/25 08:36:15;;;;;;;13.43;10.47;;;;;;;;;;4945020;28;20197;-74
2021/07/25 08:38:40;;;;;;;11.05;9.73;;;;;;;;;;4939730;28;20435;-75
2021/07/25 08:41:16;;;;;;;11.00;9.90;;;;;;;;;;4943895;28;20264;-76
2021/07/25 08:43:45;;;;;;;12.20;10.38;;;;;;;;;;4943043;28;20185;-75
2021/07/25 08:46:21;;;;;;;11.98;10.73;;;;;;;;;;4937650;28;20225;-75
2021/07/25 08:48:47;;;;;;;12.25;9.98;;;;;;;;;;4943660;28;20181;-75
2021/07/25 08:51:17;;;;;;;15.23;9.98;;;;;;;;;;4936148;28;21110;-75
2021/07/25 08:53:49;;;;;;;10.65;9.55;;;;;;;;;;4932228;28;20180;-74
2021/07/25 08:56:14;;;;;;;11.00;8.90;;;;;;;;;;4933371;28;20279;-74
2021/07/25 08:58:43;;;;;;;10.80;9.65;;;;;;;;;;4932806;28;20285;-74
2021/07/25 09:01:10;;;;;;;14.88;10.30;;;;;;;;;;4931571;28;20706;-74
2021/07/25 09:03:35;;;;;;;10.90;9.88;;;;;;;;;;4930543;28;20243;-74
2021/07/25 09:06:01;;;;;;;12.43;9.80;;;;;;;;;;4928283;28;20205;-74
2021/07/25 09:08:28;;;;;;;12.18;10.38;;;;;;;;;;4931969;28;20995;-73
2021/07/25 09:10:55;;;;;;;13.55;10.27;;;;;;;;;;4935910;28;20196;-77
2021/07/25 09:13:20;;;;;;;11.25;10.10;;;;;;;;;;4920490;28;20201;-78
2021/07/25 09:15:46;;;;;;;9.68;8.68;;;;;;;;;;4938710;28;22139;-78
2021/07/25 09:18:11;;;;;;;9.63;8.63;;;;;;;;;;4948302;28;20217;-77
2021/07/25 09:20:40;;;;;;;13.73;9.37;;;;;;;;;;4950571;28;20594;-76
2021/07/25 09:23:18;;;;;;;10.73;9.70;;;;;;;;;;4946753;28;20188;-76
2021/07/25 09:25:46;;;;;;;12.40;11.10;;;;;;;;;;4942780;28;20303;-77
2021/07/25 09:28:13;;;;;;;7.90;7.03;;;;;;;;;;4937580;28;20189;-77
2021/07/25 09:30:38;;;;;;;8.93;7.22;;;;;;;;;;4940051;28;20280;-77
2021/07/25 09:33:20;;;;;;;7.75;6.95;;;;;;;;;;4935278;28;20189;-77
2021/07/25 09:35:45;;;;;;;9.45;8.27;;;;;;;;;;4936647;28;20197;-77
2021/07/25 09:38:11;;;;;;;8.65;7.85;;;;;;;;;;4941816;28;20243;-76
2021/07/25 09:40:37;;;;;;;10.07;8.70;;;;;;;;;;4925493;28;20217;-77
2021/07/25 09:43:08;;;;;;;9.50;8.35;;;;;;;;;;4940713;28;20585;-78
2021/07/25 09:45:55;;;;;;;8.35;7.55;;;;;;;;;;4939375;28;20221;-77
2021/07/25 09:48:33;;;;;;;7.47;6.72;;;;;;;;;;4937038;28;20196;-77
2021/07/25 09:51:00;;;;;;;8.68;6.82;;;;;;;;;;4937992;28;20734;-77
2021/07/25 09:53:43;;;;;;;7.85;5.95;;;;;;;;;;4936306;28;20484;-78
2021/07/25 09:56:13;;;;;;;11.65;6.45;;;;;;;;;;4943034;28;20242;-77
2021/07/25 09:58:38;;;;;;;10.20;7.43;;;;;;;;;;4936694;28;20188;-77
2021/07/25 10:01:03;;;;;;;11.55;8.48;;;;;;;;;;4938331;28;20371;-77
2021/07/25 10:03:34;;;;;;;8.33;7.53;;;;;;;;;;4937065;28;20191;-78
2021/07/25 10:06:19;;;;;;;10.13;8.88;;;;;;;;;;4940513;28;20453;-78
2021/07/25 10:08:45;;;;;;;11.65;7.50;;;;;;;;;;4919625;28;20208;-78
2021/07/25 10:11:16;;;;;;;11.05;6.68;;;;;;;;;;4939357;28;20603;-74
2021/07/25 10:13:41;;;;;;;8.82;6.45;;;;;;;;;;4937425;28;20178;-76
2021/07/25 10:16:07;;;;;;;8.03;7.13;;;;;;;;;;4934292;28;20213;-76
2021/07/25 10:18:33;;;;;;;7.20;6.50;;;;;;;;;;4934875;28;20705;-77
2021/07/25 10:21:00;;;;;;;7.63;5.35;;;;;;;;;;4938267;28;20499;-77
2021/07/25 10:23:27;;;;;;;6.45;5.47;;;;;;;;;;4935933;28;20736;-77
2021/07/25 10:25:54;;;;;;;8.57;6.00;;;;;;;;;;4938430;28;20293;-77
2021/07/25 10:28:19;;;;;;;9.55;7.07;;;;;;;;;;4936123;28;20181;-76
2021/07/25 10:30:50;;;;;;;8.57;6.60;;;;;;;;;;4937229;28;20707;-77
2021/07/25 10:33:16;;;;;;;9.00;7.20;;;;;;;;;;4913881;28;20188;-76
2021/07/25 10:35:42;;;;;;;8.27;7.22;;;;;;;;;;4921930;29;20213;-77
2021/07/25 10:38:07;;;;;;;9.15;7.68;;;;;;;;;;4926895;28;20614;-77
2021/07/25 10:40:33;;;;;;;8.20;6.37;;;;;;;;;;4923343;28;20709;-77
2021/07/25 10:42:58;;;;;;;4.75;3.22;;;;;;;;;;4941593;28;20178;-76
2021/07/25 10:45:23;;;;;;;3.03;2.72;;;;;;;;;;4923068;28;20320;-77
2021/07/25 10:47:48;;;;;;;3.47;2.90;;;;;;;;;;4937639;28;20200;-77
2021/07/25 10:50:18;;;;;;;4.90;3.03;;;;;;;;;;4938453;28;20662;-75
2021/07/25 10:52:49;;;;;;;2.70;2.50;;;;;;;;;;4940046;28;20181;-78
2021/07/25 10:55:33;;;;;;;5.05;3.00;;;;;;;;;;4922398;28;20215;-78
2021/07/25 10:58:02;;;;;;;3.25;2.47;;;;;;;;;;4942913;28;20201;-78
2021/07/25 11:01:03;;;;;;;4.10;2.42;;;;;;;;;;4926977;28;20216;-76
2021/07/25 11:03:33;;;;;;;4.10;2.55;;;;;;;;;;4860129;29;20840;-76
2021/07/25 11:06:09;;;;;;;5.18;3.17;;;;;;;;;;4905132;28;20255;-76
2021/07/25 11:08:41;;;;;;;7.15;3.33;;;;;;;;;;4940320;28;20275;-75
2021/07/25 11:11:24;;;;;;;5.20;3.47;;;;;;;;;;4944006;28;20257;-77
2021/07/25 11:13:49;;;;;;;3.78;2.25;;;;;;;;;;4947153;28;20662;-76
2021/07/25 11:16:27;;;;;;;3.53;1.90;;;;;;;;;;4939568;28;20251;-77
2021/07/25 11:18:52;;;;;;;5.65;2.55;;;;;;;;;;4938840;28;20188;-77
2021/07/25 11:21:29;;;;;;;2.83;2.23;;;;;;;;;;4940647;28;20651;-76
2021/07/25 11:23:54;;;;;;;3.92;3.20;;;;;;;;;;4938339;28;20331;-76
2021/07/25 11:26:31;;;;;;;5.27;3.67;;;;;;;;;;4943644;28;20709;-76
2021/07/25 11:28:57;;;;;;;5.28;3.72;;;;;;;;;;4939475;28;20184;-76
2021/07/25 11:31:32;;;;;;;3.88;3.05;;;;;;;;;;4938417;28;20189;-76
2021/07/25 11:33:57;;;;;;;5.93;3.53;;;;;;;;;;4942074;28;20205;-76
2021/07/25 11:36:23;;;;;;;4.43;2.60;;;;;;;;;;4937277;28;21049;-76
2021/07/25 11:38:55;;;;;;;2.75;2.42;;;;;;;;;;4920208;28;20195;-72
2021/07/25 11:41:25;;;;;;;3.75;2.35;;;;;;;;;;4941712;28;20247;-77
2021/07/25 11:43:55;;;;;;;4.05;2.53;;;;;;;;;;4919395;28;20176;-77
2021/07/25 11:46:20;;;;;;;4.82;2.28;;;;;;;;;;4938271;28;20280;-77
2021/07/25 11:48:46;;;;;;;3.80;2.23;;;;;;;;;;4922785;28;20403;-77
2021/07/25 11:51:11;;;;;;;3.10;2.43;;;;;;;;;;4937503;28;20180;-77
2021/07/25 11:53:42;;;;;;;3.43;2.73;;;;;;;;;;4939305;28;20672;-77
2021/07/25 11:56:11;;;;;;;3.75;2.88;;;;;;;;;;4940291;28;20197;-77
2021/07/25 11:58:36;;;;;;;3.67;2.15;;;;;;;;;;4938063;28;20205;-77
2021/07/25 12:01:11;;;;;;;4.60;2.30;;;;;;;;;;4943741;28;20730;-77
2021/07/25 12:03:36;;;;;;;2.78;2.25;;;;;;;;;;4937606;28;20180;-77
2021/07/25 12:06:10;;;;;;;3.78;2.65;;;;;;;;;;4935375;28;20204;-76
2021/07/25 12:08:35;;;;;;;5.32;2.65;;;;;;;;;;4936308;28;20250;-76
2021/07/25 12:11:03;;;;;;;3.10;2.17;;;;;;;;;;4939214;28;20620;-76
2021/07/25 12:13:29;;;;;;;2.90;2.13;;;;;;;;;;4934851;28;20185;-76
2021/07/25 12:16:03;;;;;;;5.30;2.58;;;;;;;;;;4937928;28;20207;-75
2021/07/25 12:18:29;;;;;;;5.15;2.60;;;;;;;;;;4936578;28;20176;-76
2021/07/25 12:20:54;;;;;;;3.90;2.40;;;;;;;;;;4935902;28;20743;-76
2021/07/25 12:23:34;;;;;;;4.17;2.77;;;;;;;;;;4939473;28;20431;-77
2021/07/25 12:25:59;;;;;;;3.85;2.50;;;;;;;;;;4943295;28;20560;-76
2021/07/25 12:28:25;;;;;;;4.23;2.60;;;;;;;;;;4936391;28;20187;-76
2021/07/25 12:30:52;;;;;;;4.25;2.88;;;;;;;;;;4940878;28;20176;-77
2021/07/25 12:33:25;;;;;;;5.22;2.75;;;;;;;;;;4919821;28;20311;-77
2021/07/25 12:35:50;;;;;;;7.55;3.83;;;;;;;;;;4937386;28;20215;-77
2021/07/25 12:38:16;;;;;;;8.38;4.30;;;;;;;;;;4939979;28;20176;-77
2021/07/25 12:40:52;;;;;;;6.15;4.20;;;;;;;;;;4938262;28;20412;-76
2021/07/25 12:43:18;;;;;;;6.95;4.43;;;;;;;;;;4937638;28;20381;-76
2021/07/25 12:45:43;;;;;;;5.00;4.20;;;;;;;;;;4920993;28;20230;-77
2021/07/25 12:48:13;;;;;;;3.90;3.45;;;;;;;;;;4936399;28;20272;-77
2021/07/25 12:50:59;;;;;;;4.82;3.83;;;;;;;;;;4938803;28;20194;-77
2021/07/25 12:53:27;;;;;;;7.03;3.70;;;;;;;;;;4936664;28;20184;-76
2021/07/25 12:55:53;;;;;;;6.82;4.65;;;;;;;;;;4941279;28;20264;-75
2021/07/25 12:58:19;;;;;;;5.15;3.65;;;;;;;;;;4936415;28;20283;-74
2021/07/25 13:00:49;;;;;;;4.88;4.35;;;;;;;;;;4938139;28;20215;-74
2021/07/25 13:05:59;;;;;;;8.38;5.20;;;;;;;;;;4939434;28;20275;-74
2021/07/25 13:08:24;;;;;;;6.10;4.30;;;;;;;;;;4936919;28;20603;-75
2021/07/25 13:10:49;;;;;;;4.70;3.97;;;;;;;;;;4939080;28;20267;-74
2021/07/25 13:13:14;;;;;;;5.53;3.97;;;;;;;;;;4917459;28;20189;-75
2021/07/25 13:15:39;;;;;;;4.03;2.83;;;;;;;;;;4920829;28;20210;-74
2021/07/25 13:18:04;;;;;;;5.37;3.47;;;;;;;;;;4934462;28;20185;-75
2021/07/25 13:20:30;;;;;;;5.13;4.47;;;;;;;;;;4936865;28;20320;-74
2021/07/25 13:22:55;;;;;;;5.63;3.53;;;;;;;;;;4918618;28;20424;-75
2021/07/25 13:25:20;;;;;;;5.07;3.80;;;;;;;;;;4935849;28;20751;-74
2021/07/25 13:27:45;;;;;;;5.43;3.33;;;;;;;;;;4923507;28;20213;-74
2021/07/25 13:30:11;;;;;;;6.37;3.90;;;;;;;;;;4935713;28;20776;-74
2021/07/25 13:32:36;;;;;;;18.50;8.23;;;;;;;;;;4936924;28;20183;-72
2021/07/25 13:35:01;;;;;;;11.40;6.88;;;;;;;;;;4936547;28;20455;-69
2021/07/25 13:37:26;;;;;;;12.03;6.87;;;;;;;;;;4941580;28;20238;-70
2021/07/25 13:39:51;;;;;;;16.03;7.77;;;;;;;;;;4935753;28;20216;-70
2021/07/25 13:42:16;;;;;;;12.17;8.43;;;;;;;;;;4937243;28;20280;-71
2021/07/25 13:44:42;;;;;;;12.63;5.30;;;;;;;;;;4919156;28;20491;-70
2021/07/25 13:47:07;;;;;;;7.97;5.17;;;;;;;;;;4936456;28;20189;-69
2021/07/25 13:49:32;;;;;;;4.40;4.00;;;;;;;;;;4937084;28;20189;-70
2021/07/25 13:51:57;;;;;;;6.70;4.63;;;;;;;;;;4935364;28;20185;-71
2021/07/25 13:54:23;;;;;;;5.70;4.97;;;;;;;;;;4937945;28;20185;-71
2021/07/25 13:56:49;;;;;;;6.80;6.10;;;;;;;;;;4937426;28;20209;-72
2021/07/25 13:59:14;;;;;;;11.98;7.65;;;;;;;;;;4935838;28;20248;-71
2021/07/25 14:01:39;;;;;;;12.43;7.03;;;;;;;;;;4943011;28;20268;-71
2021/07/25 14:04:05;;;;;;;9.32;6.53;;;;;;;;;;4934387;28;21167;-71
2021/07/25 14:06:30;;;;;;;7.70;7.03;;;;;;;;;;4938816;28;20232;-71
2021/07/25 14:08:55;;;;;;;11.17;7.50;;;;;;;;;;4940622;28;20239;-71
2021/07/25 14:11:20;;;;;;;7.00;6.17;;;;;;;;;;4938418;28;20438;-70
2021/07/25 14:13:45;;;;;;;12.80;9.55;;;;;;;;;;4941139;28;20260;-71
2021/07/25 14:16:19;;;;;;;8.73;6.63;;;;;;;;;;4941650;28;20207;-71
2021/07/25 14:18:45;;;;;;;8.95;6.63;;;;;;;;;;4940930;28;20526;-70
2021/07/25 14:21:10;;;;;;;7.72;4.63;;;;;;;;;;4944330;28;22121;-69
2021/07/25 14:23:35;;;;;;;7.55;4.47;;;;;;;;;;4938569;28;20197;-70
2021/07/25 14:26:00;;;;;;;8.67;4.50;;;;;;;;;;4943033;28;20220;-70
2021/07/25 14:28:25;;;;;;;3.87;2.70;;;;;;;;;;4937410;28;20444;-70
2021/07/25 14:30:51;;;;;;;3.27;2.00;;;;;;;;;;4941359;28;20454;-70
2021/07/25 14:33:16;;;;;;;3.92;2.90;;;;;;;;;;4937893;28;20974;-70